Time;durP1;ratioP1;P1;durP2;ratioP2;P2;SDS_P1;SDS_P2;PMS_P1;PMS_P2;Temp;Humidity;BMP_temperature;BMP_pressure;BME280_temperature;BME280_humidity;BME280_pressure;Samples;Min_cycle;Max_cycle;Signal;HPM_P1;HPM_P2
2023/08/04 00:00:59;;;;;;;16.02;5.38;;;;;;;;;;5022896;28;20032;-77
2023/08/04 00:03:27;;;;;;;20.55;5.43;;;;;;;;;;5023956;28;20091;-78
2023/08/04 00:05:53;;;;;;;27.95;5.60;;;;;;;;;;5023569;28;20034;-78
2023/08/04 00:08:19;;;;;;;22.50;5.55;;;;;;;;;;5025802;28;20029;-78
2023/08/04 00:10:45;;;;;;;15.07;4.85;;;;;;;;;;5024655;28;20450;-77
2023/08/04 00:13:11;;;;;;;12.75;4.63;;;;;;;;;;5024512;28;20052;-78
2023/08/04 00:15:37;;;;;;;11.98;4.80;;;;;;;;;;5019769;28;20480;-77
2023/08/04 00:18:05;;;;;;;11.85;4.47;;;;;;;;;;5022897;28;20068;-77
2023/08/04 00:20:31;;;;;;;28.08;5.47;;;;;;;;;;5024088;28;20063;-77
2023/08/04 00:22:59;;;;;;;12.15;4.40;;;;;;;;;;5022563;28;20057;-76
2023/08/04 00:25:28;;;;;;;13.15;4.68;;;;;;;;;;5023683;28;20029;-78
2023/08/04 00:27:54;;;;;;;13.35;3.95;;;;;;;;;;5024823;28;20048;-78
2023/08/04 00:30:20;;;;;;;11.13;3.90;;;;;;;;;;5023514;28;20033;-78
2023/08/04 00:32:47;;;;;;;14.10;4.78;;;;;;;;;;5022435;28;20041;-77
2023/08/04 00:35:13;;;;;;;15.52;4.75;;;;;;;;;;5024028;28;20029;-78
2023/08/04 00:37:39;;;;;;;19.20;4.55;;;;;;;;;;5020878;28;20033;-78
2023/08/04 00:40:08;;;;;;;21.63;5.10;;;;;;;;;;5021911;28;20029;-78
2023/08/04 00:42:36;;;;;;;13.95;4.03;;;;;;;;;;5027590;28;20037;-77
2023/08/04 00:45:03;;;;;;;9.45;4.30;;;;;;;;;;5024006;28;20033;-78
2023/08/04 00:47:35;;;;;;;13.93;3.63;;;;;;;;;;5022768;28;20034;-78
2023/08/04 00:50:01;;;;;;;9.10;3.35;;;;;;;;;;5022265;28;20050;-76
2023/08/04 00:52:29;;;;;;;13.32;3.70;;;;;;;;;;5022060;28;20415;-78
2023/08/04 00:54:55;;;;;;;18.67;4.22;;;;;;;;;;5021615;28;20520;-76
2023/08/04 00:57:21;;;;;;;13.55;3.47;;;;;;;;;;5022152;28;20029;-78
2023/08/04 00:59:48;;;;;;;9.93;3.35;;;;;;;;;;5020426;28;20048;-77
2023/08/04 01:02:16;;;;;;;10.00;3.17;;;;;;;;;;5022941;28;20120;-77
2023/08/04 01:04:42;;;;;;;15.20;4.25;;;;;;;;;;5020253;28;20034;-78
2023/08/04 01:07:22;;;;;;;13.75;3.90;;;;;;;;;;5020005;28;20374;-77
2023/08/04 01:10:24;;;;;;;13.95;4.57;;;;;;;;;;5020917;28;20038;-77
2023/08/04 01:12:59;;;;;;;15.95;4.18;;;;;;;;;;4984035;28;21154;-78
2023/08/04 01:15:26;;;;;;;17.10;4.93;;;;;;;;;;5013864;28;20037;-78
2023/08/04 01:17:52;;;;;;;11.20;3.90;;;;;;;;;;5024561;28;20041;-78
2023/08/04 01:20:18;;;;;;;10.15;4.25;;;;;;;;;;5040031;28;20033;-78
2023/08/04 01:22:44;;;;;;;17.33;4.82;;;;;;;;;;5020727;28;20038;-76
2023/08/04 01:25:10;;;;;;;18.38;4.88;;;;;;;;;;5020894;28;20095;-78
2023/08/04 01:27:44;;;;;;;19.13;5.25;;;;;;;;;;5023908;28;20030;-77
2023/08/04 01:30:21;;;;;;;20.38;5.43;;;;;;;;;;5021898;28;20044;-78
2023/08/04 01:32:48;;;;;;;20.48;4.72;;;;;;;;;;5022775;28;20033;-78
2023/08/04 01:35:14;;;;;;;19.20;5.18;;;;;;;;;;5020826;28;20564;-78
2023/08/04 01:37:43;;;;;;;17.60;5.25;;;;;;;;;;5020865;28;20029;-78
2023/08/04 01:40:09;;;;;;;15.45;4.88;;;;;;;;;;5021924;28;20038;-77
2023/08/04 01:42:35;;;;;;;14.88;4.03;;;;;;;;;;5020626;28;20026;-79
2023/08/04 01:45:02;;;;;;;16.00;4.88;;;;;;;;;;5019256;28;20102;-78
2023/08/04 01:47:30;;;;;;;21.33;5.10;;;;;;;;;;5026904;28;20087;-78
2023/08/04 01:49:59;;;;;;;12.15;4.95;;;;;;;;;;5021372;28;20033;-79
2023/08/04 01:52:27;;;;;;;19.08;4.68;;;;;;;;;;5019276;28;20465;-77
2023/08/04 01:54:53;;;;;;;19.42;4.40;;;;;;;;;;5020114;28;20025;-78
2023/08/04 01:57:19;;;;;;;18.25;4.80;;;;;;;;;;5020146;28;20091;-78
2023/08/04 01:59:45;;;;;;;12.05;4.10;;;;;;;;;;5020968;28;21751;-78
2023/08/04 02:02:16;;;;;;;24.33;6.63;;;;;;;;;;5039030;28;20118;-78
2023/08/04 02:04:42;;;;;;;18.10;3.88;;;;;;;;;;5019317;28;20034;-78
2023/08/04 02:07:08;;;;;;;11.93;3.85;;;;;;;;;;5039525;28;20033;-78
2023/08/04 02:09:34;;;;;;;24.42;4.05;;;;;;;;;;5020154;28;20049;-78
2023/08/04 02:12:00;;;;;;;14.70;3.97;;;;;;;;;;5022195;28;20047;-78
2023/08/04 02:14:29;;;;;;;15.32;3.90;;;;;;;;;;5021214;28;20412;-76
2023/08/04 02:16:56;;;;;;;11.80;4.00;;;;;;;;;;5021785;28;20041;-79
2023/08/04 02:19:22;;;;;;;11.60;4.32;;;;;;;;;;5021307;28;20041;-77
2023/08/04 02:21:51;;;;;;;8.43;4.15;;;;;;;;;;5020755;28;20454;-77
2023/08/04 02:24:17;;;;;;;18.08;5.43;;;;;;;;;;5020049;28;20048;-76
2023/08/04 02:26:44;;;;;;;21.42;5.40;;;;;;;;;;5019912;28;20033;-78
2023/08/04 02:29:11;;;;;;;14.38;5.00;;;;;;;;;;5039260;28;20040;-78
2023/08/04 02:31:37;;;;;;;21.27;5.57;;;;;;;;;;5023170;28;20037;-78
2023/08/04 02:34:03;;;;;;;22.83;5.25;;;;;;;;;;5019741;28;20053;-78
2023/08/04 02:36:30;;;;;;;16.23;5.32;;;;;;;;;;5020804;28;20064;-78
2023/08/04 02:38:58;;;;;;;14.70;5.13;;;;;;;;;;5039498;28;20033;-77
2023/08/04 02:41:26;;;;;;;17.10;5.53;;;;;;;;;;5021225;28;20450;-77
2023/08/04 02:43:53;;;;;;;15.10;5.57;;;;;;;;;;5017932;28;20091;-78
2023/08/04 02:46:24;;;;;;;21.67;5.88;;;;;;;;;;5021546;28;20116;-78
2023/08/04 02:48:50;;;;;;;13.80;5.63;;;;;;;;;;5020644;28;20021;-78
2023/08/04 02:51:16;;;;;;;23.33;6.13;;;;;;;;;;5019693;28;20025;-77
2023/08/04 02:53:45;;;;;;;20.27;7.13;;;;;;;;;;5019081;28;20634;-78
2023/08/04 02:56:12;;;;;;;15.23;5.70;;;;;;;;;;5019037;28;20038;-78
2023/08/04 02:58:39;;;;;;;11.70;5.43;;;;;;;;;;5021266;28;20223;-78
2023/08/04 03:01:05;;;;;;;24.58;5.68;;;;;;;;;;5020727;28;20025;-78
2023/08/04 03:03:34;;;;;;;15.38;5.50;;;;;;;;;;5038661;28;20094;-77
2023/08/04 03:06:00;;;;;;;13.25;5.60;;;;;;;;;;5018516;28;20030;-78
2023/08/04 03:08:27;;;;;;;11.27;5.18;;;;;;;;;;5022311;28;20060;-78
2023/08/04 03:10:53;;;;;;;19.33;6.47;;;;;;;;;;5020812;28;20033;-78
2023/08/04 03:13:19;;;;;;;15.85;5.90;;;;;;;;;;5021055;28;20052;-77
2023/08/04 03:15:45;;;;;;;17.42;6.63;;;;;;;;;;5021259;28;20095;-78
2023/08/04 03:18:12;;;;;;;21.17;6.60;;;;;;;;;;5017310;28;20029;-77
2023/08/04 03:20:41;;;;;;;18.67;6.05;;;;;;;;;;5038911;28;20946;-78
2023/08/04 03:23:07;;;;;;;14.55;6.20;;;;;;;;;;5018795;28;20059;-77
2023/08/04 03:25:33;;;;;;;17.38;6.70;;;;;;;;;;5021996;28;20091;-78
2023/08/04 03:28:00;;;;;;;14.93;6.15;;;;;;;;;;5019582;28;20108;-78
2023/08/04 03:30:28;;;;;;;21.55;5.72;;;;;;;;;;5021417;28;20032;-76
2023/08/04 03:32:57;;;;;;;22.52;6.28;;;;;;;;;;5036781;28;20044;-77
2023/08/04 03:35:25;;;;;;;18.60;6.13;;;;;;;;;;5020197;28;20030;-76
2023/08/04 03:37:51;;;;;;;19.73;7.30;;;;;;;;;;5018896;28;20029;-78
2023/08/04 03:40:17;;;;;;;14.05;5.57;;;;;;;;;;5019768;28;20087;-78
2023/08/04 03:42:43;;;;;;;17.55;5.55;;;;;;;;;;5017756;28;20048;-77
2023/08/04 03:45:10;;;;;;;24.52;6.07;;;;;;;;;;5020701;28;20029;-77
2023/08/04 03:47:36;;;;;;;17.20;6.15;;;;;;;;;;5019289;28;20052;-77
2023/08/04 03:50:03;;;;;;;20.38;7.10;;;;;;;;;;5018646;28;20033;-78
2023/08/04 03:52:31;;;;;;;14.25;5.95;;;;;;;;;;5016568;28;20525;-78
2023/08/04 03:54:57;;;;;;;17.98;6.03;;;;;;;;;;5037829;28;20034;-78
2023/08/04 03:57:23;;;;;;;20.80;6.57;;;;;;;;;;5017842;28;20040;-77
2023/08/04 03:59:50;;;;;;;21.27;6.70;;;;;;;;;;5038276;28;20472;-78
2023/08/04 04:02:16;;;;;;;20.00;6.88;;;;;;;;;;5024345;28;20025;-78
2023/08/04 04:04:44;;;;;;;18.08;6.68;;;;;;;;;;5017729;28;20041;-76
2023/08/04 04:07:10;;;;;;;18.55;7.35;;;;;;;;;;5020536;28;20029;-78
2023/08/04 04:09:36;;;;;;;20.92;6.32;;;;;;;;;;5018759;28;20515;-78
2023/08/04 04:12:02;;;;;;;13.18;6.15;;;;;;;;;;5021872;28;20671;-78
2023/08/04 04:14:28;;;;;;;29.92;9.00;;;;;;;;;;5021756;28;20041;-76
2023/08/04 04:16:54;;;;;;;20.30;6.45;;;;;;;;;;5037717;28;20057;-77
2023/08/04 04:19:20;;;;;;;20.98;6.30;;;;;;;;;;5020655;28;20033;-78
2023/08/04 04:21:49;;;;;;;18.02;6.75;;;;;;;;;;5020680;28;20044;-77
2023/08/04 04:24:15;;;;;;;16.50;7.40;;;;;;;;;;5018350;28;20091;-77
2023/08/04 04:26:41;;;;;;;19.83;7.38;;;;;;;;;;5019754;28;20041;-76
2023/08/04 04:29:09;;;;;;;18.15;6.95;;;;;;;;;;5018721;28;20175;-78
2023/08/04 04:31:36;;;;;;;17.38;7.38;;;;;;;;;;5022293;28;20030;-78
2023/08/04 04:34:02;;;;;;;19.83;6.55;;;;;;;;;;5027737;28;20030;-77
2023/08/04 04:36:28;;;;;;;19.75;7.28;;;;;;;;;;5025425;28;20347;-75
2023/08/04 04:38:54;;;;;;;17.35;6.75;;;;;;;;;;5045130;28;20056;-77
2023/08/04 04:41:20;;;;;;;23.33;6.45;;;;;;;;;;5050436;28;20026;-74
2023/08/04 04:43:46;;;;;;;18.88;7.50;;;;;;;;;;5046935;28;20038;-77
2023/08/04 04:46:15;;;;;;;27.85;8.32;;;;;;;;;;5047087;28;20018;-76
2023/08/04 04:48:41;;;;;;;23.02;7.03;;;;;;;;;;5052863;28;20021;-77
2023/08/04 04:51:07;;;;;;;20.77;8.38;;;;;;;;;;5050137;28;20028;-76
2023/08/04 04:53:35;;;;;;;19.02;6.40;;;;;;;;;;5049021;28;20022;-76
2023/08/04 04:56:01;;;;;;;17.98;7.35;;;;;;;;;;5048646;28;20034;-76
2023/08/04 04:58:27;;;;;;;20.25;8.35;;;;;;;;;;5048897;28;20028;-75
2023/08/04 05:01:01;;;;;;;17.88;7.15;;;;;;;;;;5050892;28;20022;-76
2023/08/04 05:03:26;;;;;;;23.33;6.90;;;;;;;;;;5048266;28;20021;-76
2023/08/04 05:05:52;;;;;;;26.13;7.28;;;;;;;;;;5051159;28;20022;-76
2023/08/04 05:08:18;;;;;;;26.52;7.75;;;;;;;;;;5051625;28;20030;-76
2023/08/04 05:10:44;;;;;;;23.77;7.53;;;;;;;;;;5046845;28;20020;-76
2023/08/04 05:13:13;;;;;;;17.08;6.60;;;;;;;;;;5048141;28;20052;-76
2023/08/04 05:15:39;;;;;;;20.90;7.25;;;;;;;;;;5047628;28;20033;-76
2023/08/04 05:18:05;;;;;;;23.00;7.78;;;;;;;;;;5047956;28;20037;-76
2023/08/04 05:20:31;;;;;;;12.55;6.97;;;;;;;;;;5028088;28;20084;-79
2023/08/04 05:22:57;;;;;;;23.63;8.38;;;;;;;;;;5023890;28;20025;-79
2023/08/04 05:25:23;;;;;;;30.58;8.35;;;;;;;;;;5042382;28;20030;-79
2023/08/04 05:27:53;;;;;;;18.45;7.60;;;;;;;;;;5029421;28;20061;-79
2023/08/04 05:30:19;;;;;;;19.42;7.55;;;;;;;;;;5024442;28;20061;-78
2023/08/04 05:32:47;;;;;;;26.67;7.72;;;;;;;;;;5027287;28;20715;-79
2023/08/04 05:35:16;;;;;;;20.77;7.82;;;;;;;;;;5020999;28;20770;-77
2023/08/04 05:37:42;;;;;;;18.90;7.55;;;;;;;;;;5026668;28;20038;-78
2023/08/04 05:40:08;;;;;;;22.75;7.15;;;;;;;;;;5025019;28;20128;-78
2023/08/04 05:42:35;;;;;;;16.80;6.47;;;;;;;;;;5021773;28;20042;-78
2023/08/04 05:45:01;;;;;;;17.85;6.40;;;;;;;;;;5041817;28;20164;-79
2023/08/04 05:47:27;;;;;;;21.10;8.02;;;;;;;;;;5030471;28;20037;-79
2023/08/04 05:49:56;;;;;;;22.33;8.07;;;;;;;;;;5021468;28;20029;-76
2023/08/04 05:52:22;;;;;;;21.85;7.03;;;;;;;;;;5027366;28;20132;-77
2023/08/04 05:54:48;;;;;;;16.08;6.82;;;;;;;;;;5024100;28;20152;-78
2023/08/04 05:57:14;;;;;;;20.27;6.63;;;;;;;;;;5022884;28;20034;-78
2023/08/04 05:59:40;;;;;;;20.25;7.38;;;;;;;;;;5023172;28;20029;-79
2023/08/04 06:02:06;;;;;;;20.55;7.32;;;;;;;;;;5026952;28;20543;-76
2023/08/04 06:04:32;;;;;;;25.38;7.60;;;;;;;;;;5023895;28;20120;-78
2023/08/04 06:06:58;;;;;;;20.33;8.45;;;;;;;;;;5041947;28;20204;-78
2023/08/04 06:09:24;;;;;;;18.05;7.18;;;;;;;;;;5023593;28;20533;-78
2023/08/04 06:11:50;;;;;;;28.13;8.85;;;;;;;;;;5022015;28;20112;-79
2023/08/04 06:14:16;;;;;;;21.30;8.43;;;;;;;;;;5024435;28;20527;-79
2023/08/04 06:16:44;;;;;;;23.27;8.82;;;;;;;;;;5024750;28;20049;-78
2023/08/04 06:19:10;;;;;;;23.08;9.10;;;;;;;;;;5022315;28;20034;-79
2023/08/04 06:21:36;;;;;;;24.73;8.75;;;;;;;;;;5024653;28;20032;-78
2023/08/04 06:24:05;;;;;;;24.00;8.77;;;;;;;;;;5024348;28;20037;-78
2023/08/04 06:26:32;;;;;;;21.77;9.32;;;;;;;;;;5024880;28;20064;-79
2023/08/04 06:28:58;;;;;;;26.20;8.80;;;;;;;;;;5021192;28;20037;-78
2023/08/04 06:31:26;;;;;;;25.35;9.05;;;;;;;;;;5019647;28;20158;-79
2023/08/04 06:33:52;;;;;;;19.70;8.13;;;;;;;;;;5020455;28;20057;-77
2023/08/04 06:36:18;;;;;;;26.33;8.85;;;;;;;;;;5022233;28;20903;-79
2023/08/04 06:38:46;;;;;;;22.98;9.02;;;;;;;;;;5028246;28;20036;-79
2023/08/04 06:41:12;;;;;;;18.33;8.02;;;;;;;;;;5045418;28;20994;-78
2023/08/04 06:43:40;;;;;;;26.42;7.65;;;;;;;;;;5042332;28;20133;-79
2023/08/04 06:46:09;;;;;;;20.17;7.80;;;;;;;;;;5022161;28;20037;-78
2023/08/04 06:48:39;;;;;;;18.73;7.03;;;;;;;;;;5024387;28;20029;-76
2023/08/04 06:51:06;;;;;;;25.05;7.03;;;;;;;;;;5022430;28;20890;-78
2023/08/04 06:53:32;;;;;;;19.48;7.18;;;;;;;;;;5040301;28;20029;-78
2023/08/04 06:55:58;;;;;;;16.05;6.60;;;;;;;;;;5022678;28;20030;-79
2023/08/04 06:58:23;;;;;;;18.23;6.93;;;;;;;;;;5020111;28;20034;-78
2023/08/04 07:00:49;;;;;;;19.08;6.30;;;;;;;;;;5021376;28;20033;-77
2023/08/04 07:03:16;;;;;;;20.10;6.47;;;;;;;;;;5020569;28;20351;-79
2023/08/04 07:05:41;;;;;;;16.30;6.90;;;;;;;;;;5022231;28;20033;-76
2023/08/04 07:08:10;;;;;;;17.77;5.68;;;;;;;;;;5026015;28;20525;-78
2023/08/04 07:10:36;;;;;;;14.40;5.40;;;;;;;;;;5023763;28;20033;-78
2023/08/04 07:13:02;;;;;;;18.92;5.68;;;;;;;;;;5020875;28;20048;-78
2023/08/04 07:15:30;;;;;;;16.25;6.30;;;;;;;;;;5023349;28;20572;-77
2023/08/04 07:17:56;;;;;;;18.85;6.32;;;;;;;;;;5039234;28;20033;-78
2023/08/04 07:20:24;;;;;;;17.70;6.47;;;;;;;;;;5021718;28;20596;-78
2023/08/04 07:22:50;;;;;;;21.30;6.75;;;;;;;;;;5024296;28;20037;-76
2023/08/04 07:25:16;;;;;;;21.00;7.13;;;;;;;;;;5019286;28;20048;-79
2023/08/04 07:27:43;;;;;;;22.45;7.15;;;;;;;;;;5019611;28;20069;-76
2023/08/04 07:30:09;;;;;;;21.52;7.80;;;;;;;;;;5039714;28;20041;-79
2023/08/04 07:32:37;;;;;;;19.00;6.90;;;;;;;;;;5021118;28;20038;-78
2023/08/04 07:35:03;;;;;;;15.73;6.30;;;;;;;;;;5022926;28;20053;-78
2023/08/04 07:37:32;;;;;;;18.27;7.28;;;;;;;;;;5023222;28;20033;-78
2023/08/04 07:39:58;;;;;;;17.92;7.03;;;;;;;;;;5039199;28;20029;-77
2023/08/04 07:42:25;;;;;;;21.73;7.53;;;;;;;;;;5021122;28;20080;-78
2023/08/04 07:44:53;;;;;;;18.48;7.22;;;;;;;;;;5020628;28;20103;-77
2023/08/04 07:47:21;;;;;;;18.10;7.43;;;;;;;;;;5024838;28;20037;-76
2023/08/04 07:49:48;;;;;;;18.88;6.90;;;;;;;;;;5018429;28;20037;-78
2023/08/04 07:52:14;;;;;;;20.80;7.63;;;;;;;;;;5023043;28;20087;-79
2023/08/04 07:54:40;;;;;;;21.13;7.38;;;;;;;;;;5022148;28;20041;-77
2023/08/04 07:57:07;;;;;;;17.00;8.13;;;;;;;;;;5038191;28;20036;-78
2023/08/04 07:59:33;;;;;;;17.02;6.65;;;;;;;;;;5020677;28;20030;-78
2023/08/04 08:01:59;;;;;;;18.27;7.43;;;;;;;;;;5023540;28;20037;-78
2023/08/04 08:04:25;;;;;;;17.02;7.20;;;;;;;;;;5022750;28;20120;-77
2023/08/04 08:06:51;;;;;;;14.50;7.25;;;;;;;;;;5023990;28;20049;-78
2023/08/04 08:09:17;;;;;;;18.15;5.93;;;;;;;;;;5027555;28;20094;-78
2023/08/04 08:11:43;;;;;;;17.17;6.78;;;;;;;;;;5045323;28;20041;-79
2023/08/04 08:14:09;;;;;;;13.63;6.18;;;;;;;;;;5029634;28;20041;-78
2023/08/04 08:16:35;;;;;;;18.48;6.47;;;;;;;;;;5026383;28;20438;-79
2023/08/04 08:19:01;;;;;;;22.35;6.55;;;;;;;;;;5026589;28;20037;-77
2023/08/04 08:21:27;;;;;;;17.10;5.05;;;;;;;;;;5023846;28;20032;-78
2023/08/04 08:23:53;;;;;;;12.30;5.18;;;;;;;;;;5026016;28;20029;-77
2023/08/04 08:26:19;;;;;;;15.98;6.10;;;;;;;;;;5025579;28;20173;-79
2023/08/04 08:28:47;;;;;;;11.10;5.00;;;;;;;;;;5022507;28;20030;-79
2023/08/04 08:31:14;;;;;;;22.45;5.78;;;;;;;;;;5027765;28;20030;-79
2023/08/04 08:33:40;;;;;;;16.88;5.28;;;;;;;;;;5024894;28;20033;-79
2023/08/04 08:36:06;;;;;;;14.70;5.15;;;;;;;;;;5041387;28;20052;-78
2023/08/04 08:38:32;;;;;;;11.60;5.43;;;;;;;;;;5022511;28;20056;-77
2023/08/04 08:40:58;;;;;;;18.05;4.80;;;;;;;;;;5020455;28;20048;-78
2023/08/04 08:43:24;;;;;;;13.55;4.55;;;;;;;;;;5021054;28;20433;-77
2023/08/04 08:45:53;;;;;;;11.73;4.13;;;;;;;;;;5023128;28;20037;-76
2023/08/04 08:48:21;;;;;;;15.82;4.88;;;;;;;;;;5021349;28;20083;-78
2023/08/04 08:50:49;;;;;;;10.75;4.35;;;;;;;;;;5023372;28;20049;-77
2023/08/04 08:53:17;;;;;;;12.27;4.68;;;;;;;;;;5023023;28;20069;-78
2023/08/04 08:55:43;;;;;;;13.85;4.25;;;;;;;;;;5024915;28;20232;-78
2023/08/04 08:58:09;;;;;;;11.05;4.07;;;;;;;;;;5021394;28;20449;-77
2023/08/04 09:00:35;;;;;;;12.57;4.10;;;;;;;;;;5021974;28;20049;-76
2023/08/04 09:03:05;;;;;;;18.40;4.57;;;;;;;;;;5027880;28;20037;-79
2023/08/04 09:05:36;;;;;;;8.52;3.92;;;;;;;;;;5024149;28;20136;-76
2023/08/04 09:08:03;;;;;;;16.67;4.97;;;;;;;;;;5022957;28;20056;-78
2023/08/04 09:10:29;;;;;;;14.23;4.68;;;;;;;;;;5022476;28;20041;-78
2023/08/04 09:12:57;;;;;;;14.45;4.20;;;;;;;;;;5024704;28;20025;-77
2023/08/04 09:15:36;;;;;;;15.07;4.55;;;;;;;;;;5022907;28;20036;-79
2023/08/04 09:18:09;;;;;;;11.50;3.65;;;;;;;;;;5021477;28;20089;-77
2023/08/04 09:20:35;;;;;;;11.88;3.65;;;;;;;;;;5020760;28;20045;-79
2023/08/04 09:23:05;;;;;;;14.20;3.97;;;;;;;;;;5022059;28;20064;-77
2023/08/04 09:25:31;;;;;;;16.70;3.85;;;;;;;;;;5020820;28;20030;-76
2023/08/04 09:27:59;;;;;;;13.00;3.70;;;;;;;;;;5024433;28;20123;-79
2023/08/04 09:30:25;;;;;;;17.25;3.65;;;;;;;;;;5022347;28;20026;-78
2023/08/04 09:32:53;;;;;;;26.63;5.40;;;;;;;;;;5023991;28;20033;-78
2023/08/04 09:35:19;;;;;;;21.25;6.18;;;;;;;;;;5021684;28;20029;-77
2023/08/04 09:37:45;;;;;;;12.95;5.55;;;;;;;;;;5020630;28;20091;-78
2023/08/04 09:40:20;;;;;;;14.32;6.10;;;;;;;;;;5021332;28;20087;-76
2023/08/04 09:42:47;;;;;;;20.02;7.88;;;;;;;;;;5024366;28;20041;-77
2023/08/04 09:45:17;;;;;;;18.70;7.60;;;;;;;;;;5020163;28;20029;-78
2023/08/04 09:47:49;;;;;;;13.68;7.57;;;;;;;;;;5020512;28;20034;-78
2023/08/04 09:50:15;;;;;;;;;;;;;;;;;;5022523;28;20034;-78
2023/08/04 09:52:41;;;;;;;18.30;7.25;;;;;;;;;;5022475;28;19919;-78
2023/08/04 09:55:11;;;;;;;18.20;6.57;;;;;;;;;;5020940;28;20124;-78
2023/08/04 09:57:40;;;;;;;15.05;6.43;;;;;;;;;;5020761;28;20053;-78
2023/08/04 10:00:07;;;;;;;14.40;6.53;;;;;;;;;;5018971;28;20121;-76
2023/08/04 10:02:33;;;;;;;14.55;7.53;;;;;;;;;;5021186;28;20079;-77
2023/08/04 10:04:59;;;;;;;19.40;6.07;;;;;;;;;;5021510;28;20044;-77
2023/08/04 10:07:26;;;;;;;11.32;4.00;;;;;;;;;;5019864;28;20679;-78
2023/08/04 10:09:52;;;;;;;10.50;2.83;;;;;;;;;;5021450;28;20148;-78
2023/08/04 10:12:19;;;;;;;7.25;2.92;;;;;;;;;;5020448;28;20112;-77
2023/08/04 10:14:45;;;;;;;13.13;3.47;;;;;;;;;;5021781;28;20047;-77
2023/08/04 10:17:13;;;;;;;12.43;3.88;;;;;;;;;;5022003;28;20444;-78
2023/08/04 10:19:39;;;;;;;7.97;3.55;;;;;;;;;;5019710;28;20036;-77
2023/08/04 10:22:09;;;;;;;14.05;3.42;;;;;;;;;;5019353;28;20044;-78
2023/08/04 10:24:41;;;;;;;10.35;3.80;;;;;;;;;;5022582;28;20095;-78
2023/08/04 10:27:21;;;;;;;6.32;3.38;;;;;;;;;;5017971;28;20033;-75
2023/08/04 10:30:01;;;;;;;6.18;2.95;;;;;;;;;;5018692;28;20033;-79
2023/08/04 10:32:37;;;;;;;11.10;3.97;;;;;;;;;;5020757;28;20038;-78
2023/08/04 10:35:22;;;;;;;7.38;4.00;;;;;;;;;;5022953;28;20132;-77
2023/08/04 10:37:55;;;;;;;7.68;3.38;;;;;;;;;;5021092;28;20018;-78
2023/08/04 10:40:40;;;;;;;12.93;4.15;;;;;;;;;;5020039;28;20034;-78
2023/08/04 10:43:08;;;;;;;11.98;3.33;;;;;;;;;;5023186;28;20057;-79
2023/08/04 10:45:52;;;;;;;9.80;3.75;;;;;;;;;;5038926;28;20092;-78
2023/08/04 10:48:22;;;;;;;9.93;4.32;;;;;;;;;;5018828;28;20178;-77
2023/08/04 10:50:51;;;;;;;7.63;3.35;;;;;;;;;;5024958;28;20114;-77
2023/08/04 10:53:17;;;;;;;9.27;3.40;;;;;;;;;;5018497;28;20029;-76
2023/08/04 10:55:54;;;;;;;8.35;2.92;;;;;;;;;;5020515;28;20045;-78
2023/08/04 10:58:20;;;;;;;10.63;3.05;;;;;;;;;;5039131;28;20106;-78
2023/08/04 11:00:46;;;;;;;9.13;2.90;;;;;;;;;;5020599;28;20064;-79
2023/08/04 11:03:23;;;;;;;4.68;2.67;;;;;;;;;;5018034;28;20532;-78
2023/08/04 11:05:50;;;;;;;9.68;2.53;;;;;;;;;;5020575;28;20172;-75
2023/08/04 11:08:19;;;;;;;8.32;2.38;;;;;;;;;;5018976;28;20038;-78
2023/08/04 11:10:49;;;;;;;8.88;3.03;;;;;;;;;;5019816;28;20030;-77
2023/08/04 11:13:18;;;;;;;5.63;2.35;;;;;;;;;;5019382;28;20025;-77
2023/08/04 11:15:45;;;;;;;7.70;2.78;;;;;;;;;;5019702;28;20040;-78
2023/08/04 11:18:15;;;;;;;6.65;2.55;;;;;;;;;;5019751;28;20072;-77
2023/08/04 11:20:42;;;;;;;3.40;1.52;;;;;;;;;;5018740;28;20096;-78
2023/08/04 11:23:11;;;;;;;3.20;1.50;;;;;;;;;;5022216;28;20071;-78
2023/08/04 11:25:41;;;;;;;10.35;2.75;;;;;;;;;;5036391;28;20037;-82
2023/08/04 11:28:07;;;;;;;5.65;1.92;;;;;;;;;;5020093;28;20045;-77
2023/08/04 11:30:34;;;;;;;4.38;1.50;;;;;;;;;;5019820;28;20022;-80
2023/08/04 11:33:01;;;;;;;7.78;1.75;;;;;;;;;;5019818;28;20034;-80
2023/08/04 11:35:32;;;;;;;5.45;1.48;;;;;;;;;;5020052;28;20030;-78
2023/08/04 11:37:58;;;;;;;6.20;1.75;;;;;;;;;;5019398;28;20350;-79
2023/08/04 11:40:27;;;;;;;2.83;1.50;;;;;;;;;;5027557;28;20034;-81
2023/08/04 11:42:57;;;;;;;8.27;1.67;;;;;;;;;;5024338;28;20041;-81
2023/08/04 11:45:23;;;;;;;5.88;1.60;;;;;;;;;;5045578;28;20520;-80
2023/08/04 11:47:49;;;;;;;5.32;2.03;;;;;;;;;;5030169;28;20041;-80
2023/08/04 11:50:16;;;;;;;4.45;1.40;;;;;;;;;;5026113;28;20022;-81
2023/08/04 11:52:42;;;;;;;3.17;1.33;;;;;;;;;;5028723;28;20083;-81
2023/08/04 11:55:11;;;;;;;5.78;1.77;;;;;;;;;;5026146;28;20251;-79
2023/08/04 11:57:46;;;;;;;5.78;1.92;;;;;;;;;;5027015;28;20026;-79
2023/08/04 12:00:13;;;;;;;1.98;1.40;;;;;;;;;;5044277;28;20750;-81
2023/08/04 12:02:55;;;;;;;8.68;1.88;;;;;;;;;;5025239;28;20030;-80
2023/08/04 12:05:27;;;;;;;6.05;1.67;;;;;;;;;;5025387;28;20029;-81
2023/08/04 12:07:55;;;;;;;6.82;2.08;;;;;;;;;;5025655;28;20029;-78
2023/08/04 12:10:23;;;;;;;4.80;1.98;;;;;;;;;;5025591;28;20588;-81
2023/08/04 12:12:49;;;;;;;4.80;1.80;;;;;;;;;;5030535;28;20038;-78
2023/08/04 12:15:15;;;;;;;6.15;2.13;;;;;;;;;;5025818;28;20914;-82
2023/08/04 12:17:44;;;;;;;5.43;1.75;;;;;;;;;;5026091;28;20053;-80
2023/08/04 12:20:11;;;;;;;3.45;1.80;;;;;;;;;;5027860;28;20076;-82
2023/08/04 12:22:40;;;;;;;11.15;1.95;;;;;;;;;;5037191;28;20032;-84
2023/08/04 12:25:07;;;;;;;5.80;1.92;;;;;;;;;;5031351;28;20104;-83
2023/08/04 12:27:33;;;;;;;9.63;2.22;;;;;;;;;;5027912;28;20036;-82
2023/08/04 12:29:59;;;;;;;5.80;1.85;;;;;;;;;;5030868;28;20037;-82
2023/08/04 12:32:25;;;;;;;4.00;1.88;;;;;;;;;;5034264;28;20091;-85
2023/08/04 12:34:51;;;;;;;5.55;2.00;;;;;;;;;;5032529;28;20112;-81
2023/08/04 12:37:19;;;;;;;4.80;1.50;;;;;;;;;;5026745;28;20033;-85
2023/08/04 12:39:45;;;;;;;9.27;2.63;;;;;;;;;;5026481;28;20029;-83
2023/08/04 12:42:12;;;;;;;6.00;2.25;;;;;;;;;;5026924;28;20021;-84
2023/08/04 12:44:40;;;;;;;5.25;2.38;;;;;;;;;;5030980;28;20462;-82
2023/08/04 12:47:10;;;;;;;3.65;1.98;;;;;;;;;;5048865;28;20083;-82
2023/08/04 12:49:36;;;;;;;7.35;2.30;;;;;;;;;;5031447;28;20034;-83
2023/08/04 12:52:02;;;;;;;2.60;1.65;;;;;;;;;;5027450;28;20033;-84
2023/08/04 12:54:28;;;;;;;4.65;1.60;;;;;;;;;;5031755;28;20040;-82
2023/08/04 12:56:54;;;;;;;3.72;1.40;;;;;;;;;;5026908;28;20040;-83
2023/08/04 12:59:20;;;;;;;2.30;1.40;;;;;;;;;;5044615;28;20035;-82
2023/08/04 13:01:46;;;;;;;4.95;2.13;;;;;;;;;;5026514;28;20021;-81
2023/08/04 13:04:13;;;;;;;1.83;1.33;;;;;;;;;;5024770;28;20072;-84
2023/08/04 13:06:42;;;;;;;3.60;1.70;;;;;;;;;;5025587;28;20100;-85
2023/08/04 13:09:08;;;;;;;2.55;1.30;;;;;;;;;;5025056;28;20416;-81
2023/08/04 13:11:34;;;;;;;2.08;1.00;;;;;;;;;;5025772;28;20034;-83
2023/08/04 13:14:00;;;;;;;4.85;1.02;;;;;;;;;;5023349;28;20495;-84
2023/08/04 13:16:25;;;;;;;3.85;1.25;;;;;;;;;;5025059;28;20048;-83
2023/08/04 13:18:52;;;;;;;2.22;0.93;;;;;;;;;;5023368;28;20053;-82
2023/08/04 13:21:20;;;;;;;2.28;1.10;;;;;;;;;;5023769;28;20024;-83
2023/08/04 13:23:47;;;;;;;3.38;1.15;;;;;;;;;;5046544;28;20057;-82
2023/08/04 13:26:13;;;;;;;3.90;1.30;;;;;;;;;;5030065;28;20033;-82
2023/08/04 13:28:39;;;;;;;4.40;1.25;;;;;;;;;;5047299;28;20111;-84
2023/08/04 13:31:05;;;;;;;4.07;1.40;;;;;;;;;;5029441;28;20034;-82
2023/08/04 13:33:32;;;;;;;3.55;1.30;;;;;;;;;;5028652;28;20074;-84
2023/08/04 13:36:00;;;;;;;5.32;1.55;;;;;;;;;;5047932;28;20026;-84
2023/08/04 13:38:26;;;;;;;2.60;1.30;;;;;;;;;;5031789;28;20022;-83
2023/08/04 13:40:52;;;;;;;3.33;1.55;;;;;;;;;;5031124;28;20030;-82
2023/08/04 13:43:18;;;;;;;2.28;0.95;;;;;;;;;;5030255;28;20929;-83
2023/08/04 13:45:44;;;;;;;4.85;1.30;;;;;;;;;;5048335;28;20037;-84
2023/08/04 13:48:10;;;;;;;4.68;1.60;;;;;;;;;;5031039;28;20025;-83
2023/08/04 13:50:39;;;;;;;1.50;1.00;;;;;;;;;;5028373;28;20021;-86
2023/08/04 13:53:05;;;;;;;3.22;1.25;;;;;;;;;;5028040;28;20021;-85
2023/08/04 13:55:31;;;;;;;3.33;1.30;;;;;;;;;;5026879;28;20037;-85
2023/08/04 13:57:57;;;;;;;2.92;1.27;;;;;;;;;;5030194;28;20101;-83
2023/08/04 14:00:23;;;;;;;3.50;1.20;;;;;;;;;;5031100;28;20457;-84
2023/08/04 14:02:51;;;;;;;2.95;1.40;;;;;;;;;;5024708;28;20034;-81
2023/08/04 14:05:17;;;;;;;3.17;1.05;;;;;;;;;;5031467;28;20355;-85
2023/08/04 14:07:43;;;;;;;3.90;1.45;;;;;;;;;;5029763;28;20060;-84
2023/08/04 14:10:13;;;;;;;4.00;1.02;;;;;;;;;;5025329;28;20750;-83
2023/08/04 14:12:39;;;;;;;5.25;1.27;;;;;;;;;;5027877;28;20029;-83
2023/08/04 14:15:08;;;;;;;3.95;1.15;;;;;;;;;;5027897;28;20037;-84
2023/08/04 14:17:34;;;;;;;4.50;1.42;;;;;;;;;;5028804;28;20021;-81
2023/08/04 14:20:04;;;;;;;2.53;1.15;;;;;;;;;;5046636;28;20036;-83
2023/08/04 14:22:31;;;;;;;2.40;0.95;;;;;;;;;;5032840;28;20029;-84
2023/08/04 14:24:57;;;;;;;4.80;0.82;;;;;;;;;;5029817;28;20030;-86
2023/08/04 14:27:23;;;;;;;3.05;1.25;;;;;;;;;;5027389;28;20053;-84
2023/08/04 14:29:49;;;;;;;3.00;1.35;;;;;;;;;;5045067;28;20037;-83
2023/08/04 14:32:15;;;;;;;9.98;1.52;;;;;;;;;;5023740;28;20022;-83
2023/08/04 14:34:41;;;;;;;3.70;1.05;;;;;;;;;;5029901;28;20021;-84